Grand Island, NY (14072)

4:15 PM EST on December 05, 2016 (GMT -0500)
Radio KF2XN | | Change Station

Elev 597 ft 43.04 °N, 78.95 °W | Updated 4 minutes ago

Mostly Cloudy
Mostly Cloudy
41.3 °F
Feels Like 37 °F
N
6.0
Wind Variable Wind from West
Gusts 11.0 mph

Today
High -- | Low -- °F
--% Chance of Precip.
Yesterday
High -- | Low -- °F
Precip. -- in
Pressure 30.04 in
Visibility 10.0 miles
Clouds Scattered Clouds 3500 ft
Mostly Cloudy 4400 ft
Windchill 37 °F
Dew Point 32 °F
Humidity 70%
Rainfall 0.09 in
Snow Depth Not available.
7:32 AM 4:41 PM
Waxing Crescent, 35% visible
METAR KIAG 052053Z 26009KT 10SM SCT035 BKN044 06/M01 A3000 RMK AO2 SLP172 T00561011 53015
Pressure 30.04 in
Visibility 10.0 miles
Clouds Scattered Clouds 3500 ft
Mostly Cloudy 4400 ft
Windchill 37 °F
Dew Point 32 °F
Humidity 70%
Rainfall 0.09 in
Snow Depth Not available.
7:32 AM 4:41 PM
Waxing Crescent, 35% visible
METAR KIAG 052053Z 26009KT 10SM SCT035 BKN044 06/M01 A3000 RMK AO2 SLP172 T00561011 53015

10-Day Weather Forecast

Almanac

Astronomy

Dec. 05, 2016 Rise Set
Actual Time
Civil Twilight
Nautical Twilight
Astronomical Twilight
Moon
Length of Visible Light
Length of Day
Tomorrow will be .
, % of the Moon is Illuminated

Today's Extremes

State Highs State Lows

Community

WunderPhotos

Upload Photos

1,955,863 photos uploaded!

WunderBlog® & News

Nearby

Air Quality

  Air Quality AQ Index Pollutant
Not available.

Snow Depth

Station Depth Elevation

Earthquake Activity

City Distance Mag. Time & Date
Minimum magnitude displayed is 2.5.

Coastal Water Temperatures

Place Temperature

Stations

Nearby Weather Stations

Station Location Temp. Windchill Dew Point Humidity Wind Precip. Elev Updated Type
                   

Watches & Warnings

There are currently no watches in effect.